createdAt,value
2018-09-02T00:02:24.733Z,28.40
2018-09-02T00:04:56.456Z,28.57
2018-09-02T00:07:28.692Z,30.17
2018-09-02T00:10:01.273Z,29.30
2018-09-02T00:12:34.513Z,30.30
2018-09-02T00:15:02.523Z,30.72
2018-09-02T00:17:30.555Z,29.40
2018-09-02T00:19:58.827Z,30.50
2018-09-02T00:22:32.467Z,29.07
2018-09-02T00:25:16.234Z,31.23
2018-09-02T00:27:46.959Z,31.07
2018-09-02T00:30:18.055Z,29.12
2018-09-02T00:32:49.478Z,30.80
2018-09-02T00:35:20.964Z,31.73
2018-09-02T00:37:51.932Z,30.50
2018-09-02T00:40:23.071Z,30.88
2018-09-02T00:42:53.893Z,31.10
2018-09-02T00:45:25.085Z,32.53
2018-09-02T00:47:56.274Z,30.72
2018-09-02T00:50:24.499Z,31.62
2018-09-02T00:52:52.559Z,32.08
2018-09-02T00:55:22.606Z,31.12
2018-09-02T00:57:57.519Z,31.07
2018-09-02T01:00:27.521Z,30.25
2018-09-02T01:02:56.630Z,30.60
2018-09-02T01:05:24.727Z,30.25
2018-09-02T01:07:53.995Z,29.23
2018-09-02T01:10:22.379Z,30.92
2018-09-02T01:12:53.381Z,31.85
2018-09-02T01:15:24.412Z,31.48
2018-09-02T01:17:55.495Z,30.60
2018-09-02T01:20:26.112Z,31.12
2018-09-02T01:22:56.432Z,30.97
2018-09-02T01:25:32.312Z,31.97
2018-09-02T01:28:02.581Z,30.35
2018-09-02T01:30:39.203Z,30.08
2018-09-02T01:33:07.711Z,30.32
2018-09-02T01:35:37.559Z,32.25
2018-09-02T01:38:06.066Z,30.40
2018-09-02T01:40:34.873Z,32.00
2018-09-02T01:43:10.288Z,30.72
2018-09-02T01:45:40.801Z,30.00
2018-09-02T01:48:08.919Z,32.13
2018-09-02T01:50:43.828Z,32.00
2018-09-02T01:53:16.428Z,31.15
2018-09-02T01:55:51.104Z,32.33
2018-09-02T01:58:23.024Z,30.75
2018-09-02T02:00:54.354Z,31.80
2018-09-02T02:03:26.040Z,31.57
2018-09-02T02:05:56.995Z,30.27
2018-09-02T02:08:27.940Z,30.32
2018-09-02T02:10:56.896Z,31.15
2018-09-02T02:13:30.994Z,31.93
2018-09-02T02:16:00.750Z,31.48
2018-09-02T02:18:28.939Z,32.43
2018-09-02T02:20:59.504Z,30.30
2018-09-02T02:23:29.996Z,30.90
2018-09-02T02:26:00.953Z,31.42
2018-09-02T02:28:29.003Z,30.80
2018-09-02T02:30:57.246Z,31.80
2018-09-02T02:33:25.242Z,28.67
2018-09-02T02:35:53.327Z,30.17
2018-09-02T02:38:21.379Z,27.98
2018-09-02T02:40:49.476Z,28.70
2018-09-02T02:43:17.747Z,27.85
2018-09-02T02:45:45.850Z,27.10
2018-09-02T02:48:16.416Z,27.02
2018-09-02T02:50:50.064Z,26.45
2018-09-02T02:53:21.836Z,26.30
2018-09-02T02:55:54.318Z,26.30
2018-09-02T02:58:24.683Z,25.48
2018-09-02T03:00:55.085Z,27.40
2018-09-02T03:03:23.235Z,25.92
2018-09-02T03:05:53.559Z,25.50
2018-09-02T03:08:24.106Z,24.92
2018-09-02T03:11:11.397Z,25.65
2018-09-02T03:13:42.532Z,24.87
2018-09-02T03:16:25.438Z,25.50
2018-09-02T03:18:53.444Z,25.75
2018-09-02T03:21:21.496Z,25.60
2018-09-02T03:23:49.586Z,25.00
2018-09-02T03:26:24.448Z,25.62
2018-09-02T03:28:54.966Z,24.93
2018-09-02T03:31:22.999Z,25.12
2018-09-02T03:33:55.073Z,24.55
2018-09-02T03:36:27.081Z,25.17
2018-09-02T03:38:58.794Z,23.05
2018-09-02T03:41:31.524Z,23.52
2018-09-02T03:44:03.514Z,25.15
2018-09-02T03:46:35.566Z,24.18
2018-09-02T03:49:07.038Z,23.87
2018-09-02T03:51:38.203Z,23.40
2018-09-02T03:54:09.525Z,24.55
2018-09-02T03:56:41.729Z,23.77
2018-09-02T03:59:17.175Z,24.37
2018-09-02T04:01:45.251Z,25.90
2018-09-02T04:04:13.438Z,24.15
2018-09-02T04:06:41.614Z,23.25
2018-09-02T04:09:10.936Z,23.90
2018-09-02T04:11:39.342Z,24.82
2018-09-02T04:14:11.627Z,23.02
2018-09-02T04:16:47.432Z,23.60
2018-09-02T04:19:18.068Z,23.27
2018-09-02T04:21:46.242Z,23.10
2018-09-02T04:24:14.553Z,21.75
2018-09-02T04:26:42.607Z,22.20
2018-09-02T04:29:10.622Z,23.00
2018-09-02T04:31:38.844Z,21.37
2018-09-02T04:34:07.015Z,23.35
2018-09-02T04:36:35.190Z,22.40
2018-09-02T04:39:04.200Z,22.48
2018-09-02T04:41:32.377Z,21.85
2018-09-02T04:44:00.399Z,21.52
2018-09-02T04:46:28.401Z,22.30
2018-09-02T04:48:56.458Z,22.50
2018-09-02T04:51:24.547Z,23.02
2018-09-02T04:53:52.598Z,22.62
2018-09-02T04:56:20.706Z,23.62
2018-09-02T04:58:48.775Z,21.97
2018-09-02T05:01:16.842Z,23.22
2018-09-02T05:03:44.906Z,22.70
2018-09-02T05:06:13.194Z,22.80
2018-09-02T05:08:41.269Z,23.60
2018-09-02T05:11:09.410Z,23.98
2018-09-02T05:13:37.615Z,23.90
2018-09-02T05:16:05.878Z,23.77
2018-09-02T05:18:33.967Z,22.95
2018-09-02T05:21:02.015Z,24.90
2018-09-02T05:23:47.070Z,24.05
2018-09-02T05:26:15.159Z,23.47
2018-09-02T05:28:46.276Z,25.02
2018-09-02T05:31:18.131Z,22.82
2018-09-02T05:33:49.848Z,23.80
2018-09-02T05:36:21.675Z,24.18
2018-09-02T05:38:58.827Z,24.87
2018-09-02T05:41:26.994Z,24.50
2018-09-02T05:43:55.035Z,24.27
2018-09-02T05:46:23.003Z,24.32
2018-09-02T05:48:51.083Z,23.90
2018-09-02T05:51:19.165Z,22.95
2018-09-02T05:53:47.268Z,24.85
2018-09-02T05:56:15.337Z,24.70
2018-09-02T05:58:43.476Z,25.05
2018-09-02T06:01:11.674Z,23.05
2018-09-02T06:03:39.726Z,22.85
2018-09-02T06:06:07.884Z,20.80
2018-09-02T06:08:35.970Z,22.30
2018-09-02T06:11:04.133Z,21.93
2018-09-02T06:13:32.208Z,22.80
2018-09-02T06:16:11.589Z,21.37
2018-09-02T06:18:39.643Z,20.60
2018-09-02T06:21:07.694Z,20.40
2018-09-02T06:23:35.879Z,21.20
2018-09-02T06:26:11.040Z,20.30
2018-09-02T06:28:39.085Z,21.27
2018-09-02T06:31:07.187Z,20.68
2018-09-02T06:33:35.250Z,19.00
2018-09-02T06:36:03.438Z,18.57
2018-09-02T06:38:31.499Z,19.02
2018-09-02T06:40:59.563Z,17.45
2018-09-02T06:43:27.732Z,17.60
2018-09-02T06:45:55.810Z,16.60
2018-09-02T06:48:24.055Z,17.10
2018-09-02T06:50:52.163Z,17.53
2018-09-02T06:53:20.239Z,16.75
2018-09-02T06:55:48.387Z,16.53
2018-09-02T06:58:16.518Z,15.15
2018-09-02T07:00:44.571Z,16.70
2018-09-02T07:03:12.935Z,16.27
2018-09-02T07:05:41.886Z,17.02
2018-09-02T07:08:11.883Z,12.43
2018-09-02T07:10:40.553Z,13.18
2018-09-02T07:13:08.718Z,12.80
2018-09-02T07:15:37.013Z,14.45
2018-09-02T07:18:05.187Z,15.37
2018-09-02T07:20:34.095Z,14.40
2018-09-02T07:23:02.540Z,14.80
2018-09-02T07:25:31.250Z,14.53
2018-09-02T07:27:59.575Z,15.13
2018-09-02T07:30:28.061Z,14.83
2018-09-02T07:32:56.150Z,13.98
2018-09-02T07:35:24.438Z,14.80
2018-09-02T07:37:52.982Z,13.22
2018-09-02T07:40:21.196Z,14.70
2018-09-02T07:42:49.479Z,13.47
2018-09-02T07:45:18.566Z,13.20
2018-09-02T07:47:46.730Z,14.35
2018-09-02T07:50:14.930Z,14.53
2018-09-02T07:52:42.974Z,14.80
2018-09-02T07:55:11.070Z,13.38
2018-09-02T07:57:39.454Z,12.15
2018-09-02T08:00:09.241Z,11.93
2018-09-02T08:02:37.433Z,9.83
2018-09-02T08:05:06.373Z,8.90
2018-09-02T08:07:35.123Z,8.00
2018-09-02T08:10:03.760Z,8.48
2018-09-02T08:12:33.572Z,8.95
2018-09-02T08:15:02.568Z,7.75
2018-09-02T08:17:30.798Z,7.80
2018-09-02T08:19:59.084Z,8.70
2018-09-02T08:22:28.099Z,10.40
2018-09-02T08:24:56.255Z,9.80
2018-09-02T08:27:24.343Z,9.78
2018-09-02T08:29:53.210Z,10.75
2018-09-02T08:32:21.290Z,9.40
2018-09-02T08:34:49.342Z,9.20
2018-09-02T08:37:17.441Z,9.15
2018-09-02T08:39:45.597Z,9.60
2018-09-02T08:42:13.691Z,9.95
2018-09-02T08:44:41.735Z,10.93
2018-09-02T08:47:10.277Z,10.60
2018-09-02T08:49:38.431Z,10.63
2018-09-02T08:52:06.933Z,9.30
2018-09-02T08:54:37.087Z,8.93
2018-09-02T08:57:05.529Z,8.25
2018-09-02T08:59:33.581Z,7.83
2018-09-02T09:02:02.843Z,7.30
2018-09-02T09:04:31.053Z,7.25
2018-09-02T09:06:59.799Z,7.03
2018-09-02T09:09:27.939Z,6.60
2018-09-02T09:11:56.312Z,7.43
2018-09-02T09:14:24.378Z,6.80
2018-09-02T09:16:52.544Z,7.13
2018-09-02T09:19:20.642Z,7.20
2018-09-02T09:21:48.819Z,7.50
2018-09-02T09:24:17.866Z,7.60
2018-09-02T09:26:46.992Z,7.62
2018-09-02T09:29:16.204Z,7.65
2018-09-02T09:31:45.220Z,7.50
2018-09-02T09:34:13.658Z,7.95
2018-09-02T09:36:41.715Z,8.20
2018-09-02T09:39:10.539Z,6.90
2018-09-02T09:41:38.643Z,7.20
2018-09-02T09:44:07.283Z,7.50
2018-09-02T09:46:36.097Z,7.90
2018-09-02T09:49:04.390Z,8.88
2018-09-02T09:51:32.435Z,8.10
2018-09-02T09:54:00.685Z,8.60
2018-09-02T09:56:28.853Z,8.25
2018-09-02T09:58:57.039Z,8.40
2018-09-02T10:01:25.438Z,8.90
2018-09-02T10:03:53.503Z,8.80
2018-09-02T10:06:21.682Z,8.63
2018-09-02T10:08:49.759Z,8.65
2018-09-02T10:11:17.991Z,7.50
2018-09-02T10:13:46.119Z,7.50
2018-09-02T10:16:14.160Z,8.05
2018-09-02T10:18:42.259Z,9.18
2018-09-02T10:21:10.308Z,8.83
2018-09-02T10:23:38.497Z,8.85
2018-09-02T10:26:06.546Z,8.55
2018-09-02T10:28:34.562Z,8.30
2018-09-02T10:31:02.715Z,8.35
2018-09-02T10:33:30.945Z,8.73
2018-09-02T10:35:59.185Z,8.70
2018-09-02T10:38:27.281Z,8.13
2018-09-02T10:40:55.452Z,8.40
2018-09-02T10:43:23.608Z,8.13
2018-09-02T10:45:51.642Z,8.40
2018-09-02T10:48:19.743Z,8.55
2018-09-02T10:50:47.799Z,8.40
2018-09-02T10:53:15.997Z,9.10
2018-09-02T10:55:44.074Z,8.73
2018-09-02T10:58:12.123Z,7.75
2018-09-02T11:00:40.232Z,8.98
2018-09-02T11:03:08.275Z,8.85
2018-09-02T11:05:36.372Z,8.30
2018-09-02T11:08:04.843Z,8.53
2018-09-02T11:10:32.932Z,8.65
2018-09-02T11:13:01.075Z,8.60
2018-09-02T11:15:29.251Z,8.08
2018-09-02T11:17:57.539Z,8.10
2018-09-02T11:20:25.685Z,7.95
2018-09-02T11:22:53.782Z,7.28
2018-09-02T11:25:21.970Z,7.80
2018-09-02T11:27:50.242Z,8.30
2018-09-02T11:30:18.319Z,7.87
2018-09-02T11:32:46.551Z,6.78
2018-09-02T11:35:14.681Z,7.30
2018-09-02T11:37:42.714Z,7.17
2018-09-02T11:40:18.913Z,7.35
2018-09-02T11:42:47.055Z,7.30
2018-09-02T11:45:15.389Z,8.60
2018-09-02T11:47:44.972Z,7.73
2018-09-02T11:50:13.156Z,7.70
2018-09-02T11:52:41.202Z,7.75
2018-09-02T11:55:09.285Z,7.00
2018-09-02T11:57:37.619Z,7.50
2018-09-02T12:00:05.996Z,7.50
2018-09-02T12:02:34.150Z,8.28
2018-09-02T12:05:02.422Z,7.45
2018-09-02T12:07:31.624Z,6.92
2018-09-02T12:10:00.087Z,6.67
2018-09-02T12:12:28.593Z,7.70
2018-09-02T12:14:56.984Z,6.90
2018-09-02T12:17:35.606Z,6.92
2018-09-02T12:20:08.191Z,6.40
2018-09-02T12:22:45.374Z,7.17
2018-09-02T12:25:31.053Z,7.20
2018-09-02T12:28:14.683Z,7.55
2018-09-02T12:31:00.049Z,6.90
2018-09-02T12:33:46.663Z,7.05
2018-09-02T12:36:30.395Z,7.80
2018-09-02T12:39:11.749Z,6.90
2018-09-02T12:41:45.085Z,7.53
2018-09-02T12:44:13.335Z,7.20
2018-09-02T12:46:41.522Z,7.55
2018-09-02T12:49:09.591Z,6.97
2018-09-02T12:51:39.087Z,7.85
2018-09-02T12:54:07.822Z,7.53
2018-09-02T12:56:39.945Z,7.80
2018-09-02T12:59:08.040Z,7.53
2018-09-02T13:01:36.955Z,7.70
2018-09-02T13:04:08.542Z,7.62
2018-09-02T13:06:36.679Z,7.80
2018-09-02T13:09:09.794Z,8.40
2018-09-02T13:11:41.967Z,8.33
2018-09-02T13:14:12.483Z,7.67
2018-09-02T13:16:43.308Z,7.55
2018-09-02T13:19:12.542Z,7.70
2018-09-02T13:21:42.993Z,7.25
2018-09-02T13:24:14.131Z,7.10
2018-09-02T13:26:43.958Z,7.37
2018-09-02T13:29:13.781Z,8.28
2018-09-02T13:31:43.079Z,7.83
2018-09-02T13:34:13.056Z,7.92
2018-09-02T13:36:43.474Z,7.92
2018-09-02T13:39:12.912Z,7.10
2018-09-02T13:41:44.044Z,7.90
2018-09-02T13:44:12.331Z,7.62
2018-09-02T13:46:40.942Z,7.90
2018-09-02T13:49:10.561Z,7.90
2018-09-02T13:51:42.723Z,8.70
2018-09-02T13:54:12.955Z,9.53
2018-09-02T13:56:43.206Z,8.37
2018-09-02T13:59:12.972Z,9.00
2018-09-02T14:01:43.104Z,8.70
2018-09-02T14:04:11.574Z,9.00
2018-09-02T14:06:40.055Z,8.75
2018-09-02T14:09:12.290Z,9.20
2018-09-02T14:11:40.527Z,7.90
2018-09-02T14:14:08.902Z,9.45
2018-09-02T14:16:39.387Z,7.00
2018-09-02T14:19:09.078Z,7.97
2018-09-02T14:21:37.837Z,7.42
2018-09-02T14:24:06.327Z,8.00
2018-09-02T14:26:36.170Z,8.28
2018-09-02T14:29:04.306Z,8.48
2018-09-02T14:31:34.759Z,7.97
2018-09-02T14:34:04.829Z,8.30
2018-09-02T14:36:37.712Z,8.90
2018-09-02T14:39:08.798Z,9.40
2018-09-02T14:41:37.100Z,8.85
2018-09-02T14:44:05.144Z,9.10
2018-09-02T14:46:43.351Z,9.30
2018-09-02T14:49:13.901Z,9.83
2018-09-02T14:51:44.306Z,9.30
2018-09-02T14:54:14.789Z,8.53
2018-09-02T14:56:46.373Z,8.25
2018-09-02T14:59:17.188Z,8.60
2018-09-02T15:01:48.280Z,7.90
2018-09-02T15:04:16.574Z,8.80
2018-09-02T15:06:44.610Z,8.38
2018-09-02T15:09:12.895Z,7.20
2018-09-02T15:11:40.963Z,7.00
2018-09-02T15:14:10.030Z,7.35
2018-09-02T15:16:43.075Z,7.75
2018-09-02T15:19:23.371Z,8.00
2018-09-02T15:22:04.300Z,7.90
2018-09-02T15:24:43.391Z,8.23
2018-09-02T15:27:24.160Z,8.70
2018-09-02T15:30:03.217Z,8.50
2018-09-02T15:32:38.796Z,8.48
2018-09-02T15:35:15.722Z,7.30
2018-09-02T15:37:51.633Z,7.20
2018-09-02T15:40:29.905Z,7.80
2018-09-02T15:43:07.026Z,7.53
2018-09-02T15:45:45.079Z,7.60
2018-09-02T15:48:21.644Z,7.53
2018-09-02T15:50:56.364Z,7.60
2018-09-02T15:53:32.317Z,7.25
2018-09-02T15:56:13.585Z,7.60
2018-09-02T15:58:51.050Z,7.00
2018-09-02T16:01:27.185Z,6.72
2018-09-02T16:04:02.082Z,7.75
2018-09-02T16:06:39.228Z,7.90
2018-09-02T16:09:15.018Z,7.17
2018-09-02T16:11:52.099Z,8.13
2018-09-02T16:14:27.818Z,8.05
2018-09-02T16:17:04.028Z,8.40
2018-09-02T16:19:39.875Z,8.50
2018-09-02T16:22:17.838Z,9.10
2018-09-02T16:24:55.511Z,11.90
2018-09-02T16:27:33.338Z,9.05
2018-09-02T16:30:11.930Z,9.15
2018-09-02T16:32:50.074Z,8.60
2018-09-02T16:35:27.943Z,8.80
2018-09-02T16:38:04.523Z,9.35
2018-09-02T16:40:38.787Z,9.58
2018-09-02T16:43:15.638Z,9.20
2018-09-02T16:45:55.690Z,8.98
2018-09-02T16:48:31.451Z,9.83
2018-09-02T16:51:09.409Z,9.95
2018-09-02T16:53:48.012Z,10.08
2018-09-02T16:56:24.942Z,10.95
2018-09-02T16:59:02.384Z,10.50
2018-09-02T17:01:39.663Z,9.70
2018-09-02T17:04:20.583Z,10.80
2018-09-02T17:07:00.794Z,10.15
2018-09-02T17:09:40.382Z,41.90
2018-09-02T17:12:17.331Z,11.38
2018-09-02T17:14:55.265Z,11.90
2018-09-02T17:17:32.332Z,11.70
2018-09-02T17:20:10.602Z,14.75
2018-09-02T17:22:50.854Z,12.05
2018-09-02T17:25:30.697Z,12.13
2018-09-02T17:28:09.301Z,11.95
2018-09-02T17:30:44.109Z,10.93
2018-09-02T17:33:18.446Z,11.40
2018-09-02T17:35:58.470Z,11.80
2018-09-02T17:38:39.773Z,11.53
2018-09-02T17:41:21.326Z,10.93
2018-09-02T17:44:00.243Z,11.90
2018-09-02T17:46:38.903Z,12.05
2018-09-02T17:49:19.413Z,12.60
2018-09-02T17:51:57.310Z,13.20
2018-09-02T17:54:36.065Z,13.20
2018-09-02T17:57:10.937Z,14.18
2018-09-02T17:59:48.305Z,13.28
2018-09-02T18:02:25.181Z,14.83
2018-09-02T18:05:02.357Z,14.50
2018-09-02T18:07:42.431Z,16.50
2018-09-02T18:10:19.945Z,16.55
2018-09-02T18:12:57.692Z,17.52
2018-09-02T18:15:36.301Z,17.10
2018-09-02T18:18:15.711Z,15.23
2018-09-02T18:20:54.160Z,14.55
2018-09-02T18:23:33.892Z,14.43
2018-09-02T18:26:10.877Z,13.88
2018-09-02T18:28:49.340Z,13.70
2018-09-02T18:31:30.244Z,14.20
2018-09-02T18:34:07.349Z,14.70
2018-09-02T18:36:41.292Z,15.83
2018-09-02T18:39:15.282Z,14.03
2018-09-02T18:41:48.311Z,13.32
2018-09-02T18:44:21.126Z,13.50
2018-09-02T18:46:55.777Z,14.20
2018-09-02T18:49:29.039Z,13.80
2018-09-02T18:52:00.616Z,12.95
2018-09-02T18:54:32.869Z,13.72
2018-09-02T18:57:12.080Z,13.40
2018-09-02T18:59:47.682Z,13.50
2018-09-02T19:02:26.840Z,14.28
2018-09-02T19:05:05.491Z,14.20
2018-09-02T19:07:43.628Z,13.90
2018-09-02T19:10:22.733Z,13.32
2018-09-02T19:12:59.677Z,13.40
2018-09-02T19:15:35.145Z,14.53
2018-09-02T19:18:10.143Z,14.30
2018-09-02T19:20:45.169Z,13.78
2018-09-02T19:23:23.117Z,13.40
2018-09-02T19:25:58.640Z,15.03
2018-09-02T19:28:36.490Z,14.53
2018-09-02T19:31:12.867Z,14.53
2018-09-02T19:33:47.251Z,14.30
2018-09-02T19:36:22.935Z,14.10
2018-09-02T19:38:59.433Z,13.88
2018-09-02T19:41:34.259Z,15.40
2018-09-02T19:44:09.704Z,15.48
2018-09-02T19:46:44.788Z,15.60
2018-09-02T19:49:20.105Z,15.10
2018-09-02T19:51:56.549Z,15.18
2018-09-02T19:54:34.188Z,15.20
2018-09-02T19:57:12.742Z,14.30
2018-09-02T19:59:53.811Z,14.95
2018-09-02T20:02:32.850Z,15.45
2018-09-02T20:05:14.514Z,14.87
2018-09-02T20:07:58.981Z,14.60
2018-09-02T20:10:37.950Z,14.95
2018-09-02T20:13:17.563Z,14.90
2018-09-02T20:15:59.189Z,14.87
2018-09-02T20:18:39.780Z,14.58
2018-09-02T20:21:19.871Z,14.05
2018-09-02T20:24:02.550Z,13.10
2018-09-02T20:26:44.666Z,14.90
2018-09-02T20:29:26.960Z,13.90
2018-09-02T20:32:05.611Z,14.78
2018-09-02T20:34:43.600Z,14.00
2018-09-02T20:37:22.297Z,14.60
2018-09-02T20:39:57.924Z,14.98
2018-09-02T20:42:37.446Z,14.23
2018-09-02T20:45:18.106Z,14.23
2018-09-02T20:47:55.828Z,15.23
2018-09-02T20:50:34.715Z,14.90
2018-09-02T20:53:13.340Z,14.40
2018-09-02T20:55:54.622Z,14.47
2018-09-02T20:58:33.192Z,13.38
2018-09-02T21:01:12.456Z,13.83
2018-09-02T21:03:51.284Z,13.98
2018-09-02T21:06:32.100Z,13.60
2018-09-02T21:09:18.555Z,14.68
2018-09-02T21:11:58.051Z,14.40
2018-09-02T21:14:39.737Z,15.48
2018-09-02T21:17:23.058Z,15.03
2018-09-02T21:20:04.623Z,14.10
2018-09-02T21:22:43.519Z,14.25
2018-09-02T21:25:25.844Z,14.50
2018-09-02T21:28:05.014Z,14.73
2018-09-02T21:30:45.195Z,14.20
2018-09-02T21:33:24.938Z,15.08
2018-09-02T21:36:06.219Z,15.30
2018-09-02T21:38:46.085Z,15.05
2018-09-02T21:41:19.497Z,15.25
2018-09-02T21:43:52.093Z,15.28
2018-09-02T21:46:25.337Z,14.20
2018-09-02T21:48:57.534Z,15.38
2018-09-02T21:51:30.144Z,15.20
2018-09-02T21:54:02.672Z,15.30
2018-09-02T21:56:36.226Z,14.38
2018-09-02T21:59:07.754Z,15.00
2018-09-02T22:01:38.936Z,15.05
2018-09-02T22:04:09.334Z,15.00
2018-09-02T22:06:39.933Z,15.05
2018-09-02T22:09:13.605Z,14.90
2018-09-02T22:11:44.832Z,14.63
2018-09-02T22:14:16.138Z,14.98
2018-09-02T22:16:49.789Z,16.30
2018-09-02T22:19:23.647Z,14.80
2018-09-02T22:21:55.066Z,16.23
2018-09-02T22:24:25.876Z,16.07
2018-09-02T22:26:53.938Z,15.58
2018-09-02T22:29:25.172Z,16.10
2018-09-02T22:31:56.502Z,15.65
2018-09-02T22:34:27.448Z,15.48
2018-09-02T22:36:58.363Z,15.60
2018-09-02T22:39:29.640Z,16.82
2018-09-02T22:42:00.447Z,16.45
2018-09-02T22:44:28.386Z,17.32
2018-09-02T22:46:56.447Z,17.35
2018-09-02T22:49:24.651Z,17.30
2018-09-02T22:51:52.895Z,18.17
2018-09-02T22:54:21.273Z,17.62
2018-09-02T22:56:49.454Z,17.80
2018-09-02T22:59:17.652Z,18.40
2018-09-02T23:01:45.828Z,28.92
2018-09-02T23:04:14.005Z,21.65
2018-09-02T23:06:42.155Z,18.80
2018-09-02T23:09:10.252Z,18.10
2018-09-02T23:11:38.468Z,17.57
2018-09-02T23:14:06.739Z,17.93
2018-09-02T23:16:34.956Z,17.80
2018-09-02T23:19:03.051Z,17.50
2018-09-02T23:21:31.252Z,17.95
2018-09-02T23:23:59.379Z,17.12
2018-09-02T23:26:27.516Z,18.10
2018-09-02T23:28:55.714Z,18.53
2018-09-02T23:31:23.859Z,19.23
2018-09-02T23:33:52.124Z,17.67
2018-09-02T23:36:20.493Z,19.37
2018-09-02T23:38:48.671Z,19.07
2018-09-02T23:41:16.981Z,18.90
2018-09-02T23:43:45.010Z,19.17
2018-09-02T23:46:13.191Z,17.62
2018-09-02T23:48:41.282Z,18.70
2018-09-02T23:51:09.335Z,17.12
2018-09-02T23:53:37.719Z,17.12
2018-09-02T23:56:06.183Z,17.60
2018-09-02T23:58:34.395Z,17.82
